Time;durP1;ratioP1;P1;durP2;ratioP2;P2;SDS_P1;SDS_P2;PMS_P1;PMS_P2;Temp;Humidity;BMP_temperature;BMP_pressure;BME280_temperature;BME280_humidity;BME280_pressure;Samples;Min_cycle;Max_cycle;Signal;HPM_P1;HPM_P2
2022/07/08 00:01:59;;;;;;;1.00;1.00;;;19.90;99.90;;;;;;5110208;28;20681;-59
2022/07/08 00:04:26;;;;;;;0.95;0.95;;;19.80;99.90;;;;;;5106394;28;20212;-58
2022/07/08 00:06:54;;;;;;;0.95;0.95;;;19.80;99.90;;;;;;5109115;28;20282;-58
2022/07/08 00:09:21;;;;;;;0.88;0.88;;;19.80;99.90;;;;;;5109617;28;20245;-58
2022/07/08 00:11:49;;;;;;;1.05;0.93;;;19.80;99.90;;;;;;5105439;28;20199;-58
2022/07/08 00:14:16;;;;;;;0.90;0.90;;;19.80;99.90;;;;;;5108481;28;20188;-58
2022/07/08 00:16:44;;;;;;;0.85;0.85;;;19.80;99.90;;;;;;5103925;28;20196;-58
2022/07/08 00:19:14;;;;;;;0.80;0.80;;;19.70;99.90;;;;;;5108709;28;20211;-57
2022/07/08 00:21:41;;;;;;;1.17;1.17;;;19.70;99.90;;;;;;5110586;28;20199;-57
2022/07/08 00:24:08;;;;;;;0.98;0.98;;;19.70;99.90;;;;;;5110163;28;20219;-58
2022/07/08 00:26:35;;;;;;;0.88;0.88;;;19.70;99.90;;;;;;5107873;28;20642;-57
2022/07/08 00:29:04;;;;;;;0.73;0.73;;;19.60;99.90;;;;;;5108746;28;20207;-57
2022/07/08 00:31:31;;;;;;;0.93;0.93;;;19.60;99.90;;;;;;5110668;28;20547;-57
2022/07/08 00:33:58;;;;;;;1.05;0.90;;;19.60;99.90;;;;;;5110040;28;20286;-57
2022/07/08 00:36:25;;;;;;;0.90;0.90;;;19.60;99.90;;;;;;5107231;28;20720;-59
2022/07/08 00:38:52;;;;;;;0.90;0.90;;;19.50;99.90;;;;;;5107977;28;20315;-58
2022/07/08 00:41:20;;;;;;;0.82;0.82;;;19.50;99.90;;;;;;5107507;28;20227;-58
2022/07/08 00:43:47;;;;;;;1.00;1.00;;;19.50;99.90;;;;;;5094870;28;20207;-58
2022/07/08 00:46:17;;;;;;;1.13;1.13;;;19.50;99.90;;;;;;5108227;28;20601;-59
2022/07/08 00:48:44;;;;;;;0.90;0.90;;;19.50;99.90;;;;;;5108817;28;20582;-59
2022/07/08 00:51:13;;;;;;;0.90;0.90;;;19.40;99.90;;;;;;5110212;28;20726;-59
2022/07/08 00:53:42;;;;;;;0.90;0.90;;;19.40;99.90;;;;;;5108389;28;20207;-59
2022/07/08 00:56:11;;;;;;;0.93;0.93;;;19.40;99.90;;;;;;5109053;28;20196;-59
2022/07/08 00:58:38;;;;;;;1.02;1.02;;;19.40;99.90;;;;;;5109762;28;20729;-59
2022/07/08 01:01:05;;;;;;;0.98;0.98;;;19.40;99.90;;;;;;5110155;28;20229;-59
2022/07/08 01:03:34;;;;;;;0.90;0.90;;;19.40;99.90;;;;;;5109991;28;20248;-59
2022/07/08 01:06:01;;;;;;;0.90;0.90;;;19.30;99.90;;;;;;5109932;28;20320;-59
2022/07/08 01:08:28;;;;;;;0.85;0.85;;;19.30;99.90;;;;;;5108598;28;20198;-61
2022/07/08 01:10:55;;;;;;;0.80;0.80;;;19.30;99.90;;;;;;5108352;28;20188;-58
2022/07/08 01:13:24;;;;;;;0.80;0.80;;;19.30;99.90;;;;;;5103030;28;20298;-58
2022/07/08 01:15:51;;;;;;;0.90;0.90;;;19.40;99.90;;;;;;5109999;28;20218;-57
2022/07/08 01:18:22;;;;;;;0.80;0.80;;;19.40;99.90;;;;;;5109131;28;20283;-58
2022/07/08 01:20:51;;;;;;;0.98;0.98;;;19.30;99.90;;;;;;5108894;28;20215;-58
2022/07/08 01:23:18;;;;;;;1.15;1.15;;;19.30;99.90;;;;;;5106963;28;20198;-58
2022/07/08 01:25:46;;;;;;;1.77;1.00;;;19.30;99.90;;;;;;5104292;28;20291;-58
2022/07/08 01:28:14;;;;;;;1.10;1.10;;;19.30;99.90;;;;;;5107774;28;20210;-58
2022/07/08 01:30:41;;;;;;;0.85;0.85;;;19.30;99.90;;;;;;5096407;28;20623;-58
2022/07/08 01:33:08;;;;;;;0.88;0.88;;;19.30;99.90;;;;;;5099177;28;20235;-58
2022/07/08 01:35:35;;;;;;;0.90;0.90;;;19.30;99.90;;;;;;5109855;28;20673;-58
2022/07/08 01:38:04;;;;;;;0.98;0.98;;;19.30;99.90;;;;;;5108134;28;21193;-58
2022/07/08 01:40:31;;;;;;;0.93;0.93;;;19.30;99.90;;;;;;5108767;28;20362;-58
2022/07/08 01:42:58;;;;;;;0.77;0.77;;;19.30;99.90;;;;;;5107351;28;20544;-58
2022/07/08 01:45:25;;;;;;;0.80;0.80;;;19.30;99.90;;;;;;5103330;28;20246;-58
2022/07/08 01:47:52;;;;;;;1.00;1.00;;;19.30;99.90;;;;;;5107728;28;20196;-58
2022/07/08 01:50:19;;;;;;;1.00;1.00;;;19.30;99.90;;;;;;5107973;28;20199;-58
2022/07/08 01:52:47;;;;;;;0.90;0.90;;;19.30;99.90;;;;;;5106959;28;20287;-58
2022/07/08 01:55:15;;;;;;;1.00;1.00;;;19.30;99.90;;;;;;5108693;28;20302;-59
2022/07/08 01:57:42;;;;;;;0.85;0.85;;;19.30;99.90;;;;;;5108451;28;20278;-58
2022/07/08 02:00:10;;;;;;;1.15;1.15;;;19.30;99.90;;;;;;5107522;28;20195;-59
2022/07/08 02:02:40;;;;;;;0.90;0.90;;;19.40;99.90;;;;;;5108514;28;20660;-58
2022/07/08 02:05:09;;;;;;;0.88;0.88;;;19.30;99.90;;;;;;5109242;28;20302;-58
2022/07/08 02:07:36;;;;;;;0.77;0.77;;;19.40;99.90;;;;;;5107886;28;20233;-59
2022/07/08 02:10:05;;;;;;;1.13;1.13;;;19.30;99.90;;;;;;5107946;28;20214;-58
2022/07/08 02:12:32;;;;;;;1.00;1.00;;;19.30;99.90;;;;;;5102920;28;20560;-57
2022/07/08 02:15:02;;;;;;;1.10;1.10;;;19.30;99.90;;;;;;5093972;28;20295;-58
2022/07/08 02:17:31;;;;;;;1.65;1.20;;;19.30;99.90;;;;;;5092767;28;20344;-58
2022/07/08 02:19:58;;;;;;;1.27;0.90;;;19.30;99.90;;;;;;5106710;28;20199;-58
2022/07/08 02:22:26;;;;;;;1.10;1.10;;;19.30;99.90;;;;;;5106062;28;20199;-58
2022/07/08 02:24:53;;;;;;;0.80;0.80;;;19.30;99.90;;;;;;5109498;28;20693;-58
2022/07/08 02:27:20;;;;;;;0.90;0.90;;;19.30;99.90;;;;;;5107438;28;20199;-57
2022/07/08 02:29:49;;;;;;;1.05;1.05;;;19.30;99.90;;;;;;5106638;28;20296;-58
2022/07/08 02:32:16;;;;;;;1.10;1.10;;;19.40;99.90;;;;;;5106091;28;20195;-57
2022/07/08 02:34:43;;;;;;;1.20;1.00;;;19.40;99.90;;;;;;5113254;28;20264;-59
2022/07/08 02:37:10;;;;;;;0.90;0.90;;;19.40;99.90;;;;;;5111328;28;20726;-58
2022/07/08 02:39:37;;;;;;;1.20;1.20;;;19.60;99.90;;;;;;5112115;28;20192;-58
2022/07/08 02:42:05;;;;;;;1.25;1.15;;;19.30;99.90;;;;;;5112227;28;20195;-58
2022/07/08 02:44:32;;;;;;;1.10;1.10;;;19.40;99.90;;;;;;5108256;28;20304;-58
2022/07/08 02:47:01;;;;;;;3.28;1.10;;;19.40;99.90;;;;;;5111120;27;20203;-58
2022/07/08 02:49:28;;;;;;;1.30;1.20;;;19.30;99.90;;;;;;5109356;28;20271;-58
2022/07/08 02:51:55;;;;;;;1.00;1.00;;;19.30;99.90;;;;;;5103995;28;20279;-59
2022/07/08 02:54:22;;;;;;;1.08;1.08;;;19.30;99.90;;;;;;5103912;28;20203;-59
2022/07/08 02:56:49;;;;;;;1.10;1.10;;;19.30;99.90;;;;;;5108814;28;20312;-58
2022/07/08 02:59:16;;;;;;;1.17;1.08;;;19.30;99.90;;;;;;5104289;28;20188;-58
2022/07/08 03:01:43;;;;;;;0.90;0.90;;;19.30;99.90;;;;;;5111828;28;20203;-59
2022/07/08 03:04:11;;;;;;;1.00;0.93;;;19.30;99.90;;;;;;5112700;28;20200;-59
2022/07/08 03:06:38;;;;;;;1.27;1.17;;;19.30;99.90;;;;;;5110284;28;20265;-59
2022/07/08 03:09:05;;;;;;;1.00;1.00;;;19.40;99.90;;;;;;5111924;28;20567;-59
2022/07/08 03:11:32;;;;;;;1.20;1.20;;;19.40;99.90;;;;;;5111279;28;20210;-59
2022/07/08 03:13:59;;;;;;;0.90;0.90;;;19.40;99.90;;;;;;5112248;28;20700;-58
2022/07/08 03:16:26;;;;;;;1.13;1.13;;;19.40;99.90;;;;;;5108880;28;20680;-58
2022/07/08 03:18:53;;;;;;;0.80;0.80;;;19.40;99.90;;;;;;5100727;28;20205;-58
2022/07/08 03:21:21;;;;;;;1.10;1.10;;;19.40;99.90;;;;;;5101358;28;20600;-58
2022/07/08 03:23:48;;;;;;;0.90;0.90;;;19.40;99.90;;;;;;5111100;28;20849;-57
2022/07/08 03:26:16;;;;;;;1.00;1.00;;;19.40;99.90;;;;;;5104164;28;20218;-58
2022/07/08 03:28:43;;;;;;;0.90;0.90;;;19.40;99.90;;;;;;5108102;28;20188;-56
2022/07/08 03:31:10;;;;;;;0.82;0.82;;;19.40;99.90;;;;;;5112155;28;20282;-57
2022/07/08 03:33:37;;;;;;;0.90;0.90;;;19.40;99.90;;;;;;5110448;28;20253;-57
2022/07/08 03:36:06;;;;;;;1.00;1.00;;;19.50;99.90;;;;;;5111280;28;20188;-54
2022/07/08 03:38:35;;;;;;;1.50;1.23;;;19.50;99.90;;;;;;5108308;28;20196;-58
2022/07/08 03:43:46;;;;;;;1.08;1.08;;;19.50;99.90;;;;;;5107541;28;20192;-59
2022/07/08 03:46:13;;;;;;;0.85;0.85;;;19.50;99.90;;;;;;5108732;28;20287;-59
2022/07/08 03:48:40;;;;;;;1.08;1.08;;;19.50;99.90;;;;;;5110578;28;20488;-60
2022/07/08 03:51:08;;;;;;;1.40;1.30;;;19.60;99.90;;;;;;5111308;28;20586;-60
2022/07/08 03:53:36;;;;;;;1.30;1.20;;;19.60;99.90;;;;;;5107957;28;20241;-60
2022/07/08 03:56:05;;;;;;;1.00;1.00;;;19.60;99.90;;;;;;5110148;28;20270;-60
2022/07/08 03:58:32;;;;;;;0.90;0.90;;;19.60;99.90;;;;;;5106392;28;20729;-59
2022/07/08 04:00:59;;;;;;;1.67;1.30;;;19.70;99.90;;;;;;5111236;28;20227;-59
2022/07/08 04:03:26;;;;;;;1.08;1.08;;;19.70;99.90;;;;;;5110590;28;20192;-59
2022/07/08 04:05:54;;;;;;;1.20;1.10;;;19.70;99.90;;;;;;5110044;28;20235;-59
2022/07/08 04:08:21;;;;;;;1.00;1.00;;;19.70;99.90;;;;;;5097404;28;20559;-59
2022/07/08 04:10:49;;;;;;;1.20;1.20;;;19.80;99.90;;;;;;5108087;28;20307;-58
2022/07/08 04:13:16;;;;;;;1.58;1.48;;;19.80;99.90;;;;;;5090655;28;20585;-61
2022/07/08 04:15:44;;;;;;;1.10;1.10;;;19.80;99.90;;;;;;5103618;28;20206;-59
2022/07/08 04:18:11;;;;;;;1.13;1.13;;;19.80;99.90;;;;;;5101399;28;20218;-59
2022/07/08 04:20:38;;;;;;;1.02;1.02;;;19.80;99.90;;;;;;5107419;28;20284;-59
2022/07/08 04:23:05;;;;;;;1.20;1.10;;;19.80;99.90;;;;;;5110157;28;20208;-58
2022/07/08 04:25:32;;;;;;;0.90;0.90;;;19.80;99.90;;;;;;5101661;28;20243;-58
2022/07/08 04:28:00;;;;;;;1.00;1.00;;;19.80;99.90;;;;;;5106937;28;20203;-58
2022/07/08 04:30:28;;;;;;;1.63;1.05;;;19.90;99.90;;;;;;5110955;28;20245;-56
2022/07/08 04:32:55;;;;;;;1.10;1.10;;;19.90;99.90;;;;;;5101357;28;20192;-59
2022/07/08 04:35:22;;;;;;;1.00;1.00;;;19.90;99.90;;;;;;5101128;28;20655;-58
2022/07/08 04:37:49;;;;;;;1.02;1.02;;;19.90;99.90;;;;;;5109559;28;20309;-59
2022/07/08 04:40:16;;;;;;;0.80;0.80;;;20.00;99.90;;;;;;5108413;28;20191;-58
2022/07/08 04:42:43;;;;;;;1.13;1.10;;;20.00;99.90;;;;;;5106755;28;20191;-58
2022/07/08 04:45:12;;;;;;;0.90;0.90;;;20.00;99.90;;;;;;5108517;28;20211;-59
2022/07/08 04:47:39;;;;;;;1.00;1.00;;;20.10;99.90;;;;;;5108668;28;20188;-59
2022/07/08 04:50:07;;;;;;;1.17;1.08;;;20.00;99.90;;;;;;5110281;28;20192;-59
2022/07/08 04:52:34;;;;;;;1.00;1.00;;;20.00;99.90;;;;;;5109428;28;20219;-60
2022/07/08 04:55:01;;;;;;;0.90;0.90;;;20.10;99.90;;;;;;5107323;28;20298;-59
2022/07/08 04:57:29;;;;;;;1.35;1.35;;;20.10;99.90;;;;;;5094414;28;20699;-58
2022/07/08 04:59:56;;;;;;;1.40;1.30;;;20.10;99.90;;;;;;5109719;28;20328;-58
2022/07/08 05:02:24;;;;;;;1.40;1.30;;;20.10;99.90;;;;;;5108530;28;20241;-59
2022/07/08 05:04:51;;;;;;;1.00;1.00;;;20.10;99.90;;;;;;5110750;28;20410;-59
2022/07/08 05:07:19;;;;;;;1.35;1.20;;;20.20;99.90;;;;;;5109686;28;20300;-59
2022/07/08 05:09:46;;;;;;;1.65;1.35;;;20.20;99.90;;;;;;5094610;28;20283;-59
2022/07/08 05:12:13;;;;;;;1.20;1.00;;;20.20;99.90;;;;;;5103983;28;20287;-59
2022/07/08 05:14:40;;;;;;;1.42;1.33;;;20.20;99.90;;;;;;5106935;28;20608;-58
2022/07/08 05:17:07;;;;;;;1.10;1.10;;;20.20;99.90;;;;;;5108084;28;20263;-59
2022/07/08 05:19:35;;;;;;;1.52;1.33;;;20.20;99.90;;;;;;5110754;28;20237;-59
2022/07/08 05:22:03;;;;;;;1.40;1.30;;;20.20;99.90;;;;;;5106356;28;20223;-62
2022/07/08 05:24:30;;;;;;;1.20;1.10;;;20.20;99.90;;;;;;5098182;28;20223;-61
2022/07/08 05:26:57;;;;;;;1.27;1.27;;;20.20;99.90;;;;;;5102753;28;20381;-61
2022/07/08 05:29:24;;;;;;;1.30;1.30;;;20.20;99.90;;;;;;5102744;28;20606;-61
2022/07/08 05:31:53;;;;;;;1.92;1.33;;;20.20;99.90;;;;;;5093721;28;20250;-61
2022/07/08 05:34:21;;;;;;;1.42;1.33;;;20.20;99.90;;;;;;5099289;28;20205;-60
2022/07/08 05:36:49;;;;;;;1.75;1.50;;;20.20;99.90;;;;;;5097336;28;20254;-60
2022/07/08 05:39:16;;;;;;;1.13;1.13;;;20.30;99.90;;;;;;5100920;28;20528;-60
2022/07/08 05:41:43;;;;;;;1.10;1.10;;;20.30;99.90;;;;;;5103234;28;20208;-61
2022/07/08 05:44:11;;;;;;;1.00;1.00;;;20.30;99.90;;;;;;5100471;28;20229;-61
2022/07/08 05:46:38;;;;;;;1.13;1.13;;;20.40;99.90;;;;;;5109891;28;20250;-54
2022/07/08 05:49:05;;;;;;;0.95;0.95;;;20.40;99.90;;;;;;5107605;28;20686;-53
2022/07/08 05:51:32;;;;;;;1.42;1.23;;;20.40;99.90;;;;;;5092350;28;20284;-53
2022/07/08 05:54:00;;;;;;;1.15;1.15;;;20.40;99.90;;;;;;5089366;28;20568;-48
2022/07/08 05:56:27;;;;;;;0.88;0.88;;;20.50;99.90;;;;;;5109150;28;20218;-53
2022/07/08 05:58:54;;;;;;;1.10;1.10;;;20.50;99.90;;;;;;5106363;28;20188;-59
2022/07/08 06:01:21;;;;;;;1.30;1.20;;;20.50;99.90;;;;;;5102490;28;20818;-58
2022/07/08 06:03:48;;;;;;;0.98;0.98;;;20.50;99.90;;;;;;5108207;28;20230;-57
2022/07/08 06:06:15;;;;;;;1.50;1.15;;;20.60;99.90;;;;;;5110242;28;20269;-57
2022/07/08 06:08:43;;;;;;;1.00;0.90;;;20.60;99.90;;;;;;5107709;28;20213;-57
2022/07/08 06:11:11;;;;;;;0.93;0.93;;;20.60;99.90;;;;;;5086203;28;20563;-59
2022/07/08 06:13:39;;;;;;;4.15;1.23;;;20.70;99.90;;;;;;5099817;28;20427;-59
2022/07/08 06:16:07;;;;;;;1.17;1.13;;;20.70;99.90;;;;;;5107868;28;20223;-59
2022/07/08 06:18:35;;;;;;;1.55;1.45;;;20.70;99.90;;;;;;5093533;28;20219;-59
2022/07/08 06:21:03;;;;;;;0.90;0.90;;;20.60;99.90;;;;;;5104202;28;20256;-58
2022/07/08 06:23:31;;;;;;;1.30;1.30;;;20.60;99.90;;;;;;5101138;28;20547;-59
2022/07/08 06:25:58;;;;;;;1.20;1.10;;;20.70;99.90;;;;;;5109077;28;20200;-59
2022/07/08 06:28:26;;;;;;;1.77;1.20;;;20.70;99.90;;;;;;5103535;28;20224;-59
2022/07/08 06:30:53;;;;;;;1.63;1.27;;;20.70;99.90;;;;;;5101538;28;20215;-59
2022/07/08 06:33:20;;;;;;;1.30;1.20;;;20.70;99.90;;;;;;5095810;28;20620;-59
2022/07/08 06:35:48;;;;;;;2.65;1.20;;;20.70;99.90;;;;;;5099081;28;20230;-58
2022/07/08 06:38:15;;;;;;;2.10;1.35;;;20.70;99.90;;;;;;5101297;28;20192;-59
2022/07/08 06:40:42;;;;;;;2.45;1.40;;;20.80;99.90;;;;;;5096333;28;20195;-57
2022/07/08 06:43:09;;;;;;;1.60;1.50;;;20.80;99.90;;;;;;5107928;28;20200;-58
2022/07/08 06:45:37;;;;;;;2.03;1.15;;;20.90;99.90;;;;;;5103182;28;20208;-58
2022/07/08 06:48:05;;;;;;;1.00;1.00;;;20.90;99.90;;;;;;5108719;28;20295;-59
2022/07/08 06:50:32;;;;;;;1.13;1.00;;;20.90;99.90;;;;;;5107181;28;20225;-59
2022/07/08 06:52:59;;;;;;;1.13;1.00;;;20.90;99.90;;;;;;5106343;28;20200;-59
2022/07/08 06:55:26;;;;;;;0.77;0.77;;;20.90;99.90;;;;;;5103017;28;20228;-59
2022/07/08 06:57:54;;;;;;;0.90;0.90;;;20.90;99.90;;;;;;5097640;28;20250;-58
2022/07/08 07:00:22;;;;;;;0.80;0.80;;;21.00;99.90;;;;;;5096801;28;20249;-59
2022/07/08 07:02:50;;;;;;;0.90;0.90;;;21.00;99.90;;;;;;5107319;28;20295;-58
2022/07/08 07:05:19;;;;;;;0.80;0.80;;;21.00;99.90;;;;;;5103979;28;20504;-58
2022/07/08 07:07:46;;;;;;;0.70;0.70;;;21.10;99.90;;;;;;5103240;28;20582;-58
2022/07/08 07:10:14;;;;;;;0.80;0.80;;;21.10;99.90;;;;;;5100253;28;20231;-58
2022/07/08 07:12:41;;;;;;;0.70;0.70;;;21.20;99.90;;;;;;5107235;28;20275;-59
2022/07/08 07:15:09;;;;;;;0.65;0.65;;;21.20;99.90;;;;;;5106107;28;20663;-58
2022/07/08 07:17:36;;;;;;;0.70;0.70;;;21.20;99.90;;;;;;5104069;28;20250;-58
2022/07/08 07:20:06;;;;;;;0.73;0.73;;;21.20;99.90;;;;;;5104714;28;20197;-59
2022/07/08 07:22:33;;;;;;;0.52;0.52;;;21.20;99.90;;;;;;5105425;28;20282;-58
2022/07/08 07:25:00;;;;;;;0.60;0.60;;;21.20;99.90;;;;;;5106813;28;20204;-59
2022/07/08 07:27:27;;;;;;;1.65;0.50;;;21.10;99.90;;;;;;5093077;28;20215;-58
2022/07/08 07:29:54;;;;;;;0.45;0.45;;;21.10;99.90;;;;;;5101848;28;20187;-59
2022/07/08 07:32:21;;;;;;;0.50;0.43;;;21.10;99.90;;;;;;5110274;28;20590;-59
2022/07/08 07:34:48;;;;;;;0.73;0.70;;;21.20;99.90;;;;;;5112066;28;20200;-58
2022/07/08 07:37:16;;;;;;;0.40;0.40;;;21.20;99.90;;;;;;5106325;28;20231;-58
2022/07/08 07:39:43;;;;;;;0.70;0.70;;;21.20;99.90;;;;;;5111646;28;20248;-58
2022/07/08 07:42:11;;;;;;;0.85;0.60;;;21.20;99.90;;;;;;5109043;28;20200;-58
2022/07/08 07:44:38;;;;;;;1.23;0.80;;;21.20;99.90;;;;;;5105021;28;20199;-59
2022/07/08 07:47:05;;;;;;;0.60;0.60;;;21.20;99.90;;;;;;5107247;28;20251;-58
2022/07/08 07:49:32;;;;;;;0.70;0.70;;;21.20;99.90;;;;;;5107602;28;20296;-59
2022/07/08 07:51:59;;;;;;;0.68;0.68;;;21.20;99.90;;;;;;5110021;28;20188;-58
2022/07/08 07:54:28;;;;;;;2.28;0.73;;;21.20;99.90;;;;;;5111111;28;20250;-58
2022/07/08 07:56:55;;;;;;;0.63;0.63;;;21.20;99.90;;;;;;5112510;28;20304;-59
2022/07/08 07:59:22;;;;;;;1.45;0.60;;;21.20;99.90;;;;;;5107484;28;20283;-58
2022/07/08 08:01:49;;;;;;;0.60;0.60;;;21.20;99.90;;;;;;5098163;28;20275;-59
2022/07/08 08:04:16;;;;;;;0.50;0.50;;;21.20;99.90;;;;;;5110552;28;20208;-58
2022/07/08 08:06:43;;;;;;;0.60;0.60;;;21.20;99.90;;;;;;5107224;28;20235;-57
2022/07/08 08:09:10;;;;;;;0.60;0.60;;;21.20;99.90;;;;;;5108222;28;20261;-58
2022/07/08 08:11:39;;;;;;;0.70;0.70;;;21.20;99.90;;;;;;5110714;28;20254;-58
2022/07/08 08:14:06;;;;;;;0.57;0.57;;;21.10;99.90;;;;;;5105202;28;20196;-59
2022/07/08 08:16:33;;;;;;;0.60;0.60;;;21.10;99.90;;;;;;5111304;28;20196;-58
2022/07/08 08:19:00;;;;;;;0.40;0.40;;;21.10;99.90;;;;;;5103304;28;20218;-58
2022/07/08 08:21:27;;;;;;;1.33;0.80;;;21.10;99.90;;;;;;5108818;28;20563;-58
2022/07/08 08:23:54;;;;;;;2.50;0.90;;;21.00;99.90;;;;;;5108814;27;20204;-59
2022/07/08 08:26:22;;;;;;;3.17;0.75;;;21.10;99.90;;;;;;5105321;28;20192;-59
2022/07/08 08:28:51;;;;;;;5.03;0.98;;;21.10;99.90;;;;;;5105130;28;20668;-57
2022/07/08 08:31:18;;;;;;;2.05;0.95;;;21.00;99.90;;;;;;5112435;28;20211;-59
2022/07/08 08:33:45;;;;;;;1.02;1.00;;;21.00;99.90;;;;;;5100422;28;20245;-58
2022/07/08 08:36:12;;;;;;;1.65;0.95;;;21.00;99.90;;;;;;5108482;28;20207;-58
2022/07/08 08:38:39;;;;;;;0.90;0.77;;;21.00;99.90;;;;;;5104532;28;20557;-58
2022/07/08 08:41:07;;;;;;;0.70;0.70;;;21.10;99.90;;;;;;5109879;28;20253;-58
2022/07/08 08:43:34;;;;;;;0.68;0.60;;;21.10;99.90;;;;;;5099863;28;20659;-57
2022/07/08 08:46:03;;;;;;;0.60;0.60;;;21.10;99.90;;;;;;5109618;28;20321;-58
2022/07/08 08:48:36;;;;;;;0.85;0.65;;;21.10;99.90;;;;;;5110692;28;20203;-58
2022/07/08 08:51:05;;;;;;;1.95;0.68;;;21.10;99.90;;;;;;5108270;28;20196;-58
2022/07/08 08:53:40;;;;;;;1.85;0.85;;;21.20;99.90;;;;;;5108647;28;20389;-58
2022/07/08 08:56:10;;;;;;;0.80;0.80;;;21.20;99.90;;;;;;5107384;28;20188;-58
2022/07/08 08:58:39;;;;;;;1.42;1.10;;;21.20;99.90;;;;;;5089511;28;20572;-58
2022/07/08 09:01:09;;;;;;;1.55;0.88;;;21.20;99.90;;;;;;5106178;28;20202;-58
2022/07/08 09:03:36;;;;;;;1.10;0.80;;;21.30;99.90;;;;;;5105957;28;20249;-57
2022/07/08 09:06:04;;;;;;;1.27;1.10;;;21.30;99.90;;;;;;5109995;28;20210;-58
2022/07/08 09:08:31;;;;;;;2.15;0.90;;;21.30;99.90;;;;;;5104672;28;20298;-58
2022/07/08 09:10:58;;;;;;;2.10;0.80;;;21.30;99.90;;;;;;5102287;28;20204;-58
2022/07/08 09:13:26;;;;;;;1.38;0.60;;;21.30;99.90;;;;;;5107901;28;20661;-58
2022/07/08 09:15:57;;;;;;;2.20;0.60;;;21.30;99.90;;;;;;5105171;28;20286;-58
2022/07/08 09:18:31;;;;;;;0.40;0.40;;;21.30;99.90;;;;;;5107013;28;20183;-58
2022/07/08 09:20:59;;;;;;;0.60;0.60;;;21.40;99.90;;;;;;5110744;28;20204;-58
2022/07/08 09:23:30;;;;;;;1.75;0.50;;;21.40;99.90;;;;;;5110293;28;20223;-59
2022/07/08 09:25:58;;;;;;;0.55;0.55;;;21.40;99.90;;;;;;5103689;28;20218;-59
2022/07/08 09:28:31;;;;;;;0.60;0.57;;;21.40;99.90;;;;;;5107983;28;20802;-58
2022/07/08 09:30:59;;;;;;;0.57;0.57;;;21.40;99.90;;;;;;5107466;28;20671;-59
2022/07/08 09:33:28;;;;;;;0.50;0.50;;;21.40;99.90;;;;;;5106132;28;20431;-58
2022/07/08 09:35:56;;;;;;;0.98;0.55;;;21.40;99.90;;;;;;5110085;28;20259;-58
2022/07/08 09:38:24;;;;;;;0.60;0.60;;;21.40;99.90;;;;;;5109271;28;20196;-58
2022/07/08 09:40:55;;;;;;;0.55;0.55;;;21.40;99.90;;;;;;5109110;28;20744;-59
2022/07/08 09:43:22;;;;;;;0.40;0.40;;;21.40;99.90;;;;;;5100848;28;20219;-57
2022/07/08 09:45:49;;;;;;;2.17;0.60;;;21.50;99.90;;;;;;5105836;28;20508;-59
2022/07/08 09:48:17;;;;;;;0.55;0.55;;;21.60;99.90;;;;;;5108544;28;20239;-58
2022/07/08 09:50:48;;;;;;;0.50;0.50;;;21.70;99.90;;;;;;5101088;28;20196;-58
2022/07/08 09:53:18;;;;;;;0.85;0.75;;;21.80;99.90;;;;;;5105239;28;20275;-59
2022/07/08 09:55:47;;;;;;;0.55;0.55;;;21.90;99.90;;;;;;5106601;28;20203;-59
2022/07/08 09:58:15;;;;;;;0.55;0.55;;;22.00;99.90;;;;;;5097736;28;20223;-58
2022/07/08 10:00:44;;;;;;;0.50;0.50;;;22.10;99.90;;;;;;5093373;28;20228;-59
2022/07/08 10:03:12;;;;;;;0.68;0.68;;;22.20;99.90;;;;;;5099925;28;20195;-58
2022/07/08 10:05:40;;;;;;;0.60;0.60;;;22.20;99.90;;;;;;5106487;28;20200;-58
2022/07/08 10:08:09;;;;;;;0.50;0.50;;;22.30;99.90;;;;;;5101526;28;20595;-59
2022/07/08 10:10:38;;;;;;;1.08;0.98;;;22.30;99.90;;;;;;5095798;28;20207;-59
2022/07/08 10:13:06;;;;;;;11.50;0.95;;;22.30;99.90;;;;;;5097449;28;20292;-59
2022/07/08 10:15:34;;;;;;;0.52;0.52;;;22.30;99.90;;;;;;5092073;28;20200;-58
2022/07/08 10:18:08;;;;;;;2.20;1.02;;;22.40;99.90;;;;;;5101067;28;20732;-58
2022/07/08 10:20:39;;;;;;;6.80;1.90;;;22.40;99.90;;;;;;5102301;28;20200;-58
2022/07/08 10:23:10;;;;;;;4.60;2.20;;;22.50;99.90;;;;;;5103380;28;20192;-58
2022/07/08 10:25:37;;;;;;;2.05;1.63;;;22.50;99.60;;;;;;5099695;28;20188;-58
2022/07/08 10:28:06;;;;;;;1.52;1.40;;;22.50;99.30;;;;;;5101950;28;20215;-58
2022/07/08 10:30:49;;;;;;;1.63;1.20;;;22.50;99.30;;;;;;5098715;28;20326;-58
2022/07/08 10:33:24;;;;;;;0.80;0.80;;;22.60;99.20;;;;;;5096241;28;20288;-58
2022/07/08 10:36:08;;;;;;;0.82;0.82;;;22.60;98.90;;;;;;5101192;28;20247;-57
2022/07/08 10:38:38;;;;;;;1.27;0.90;;;22.70;98.80;;;;;;5105162;28;20189;-58
2022/07/08 10:41:08;;;;;;;0.70;0.70;;;22.60;98.50;;;;;;5099713;28;20234;-58
2022/07/08 10:43:35;;;;;;;0.50;0.50;;;22.50;98.30;;;;;;5100944;28;20195;-58
2022/07/08 10:46:04;;;;;;;0.35;0.35;;;22.50;98.20;;;;;;5105815;28;20612;-58
2022/07/08 10:48:48;;;;;;;0.45;0.45;;;22.50;97.90;;;;;;5105958;28;20253;-58
2022/07/08 10:51:47;;;;;;;1.40;0.50;;;22.50;97.70;;;;;;5111190;28;20208;-58
2022/07/08 10:54:42;;;;;;;0.45;0.40;;;22.50;97.30;;;;;;5101803;28;20493;-59
2022/07/08 10:57:15;;;;;;;0.60;0.60;;;22.50;97.20;;;;;;5056373;28;20239;-58
2022/07/08 10:59:42;;;;;;;0.50;0.50;;;22.50;97.40;;;;;;5107121;28;20279;-58
2022/07/08 11:02:11;;;;;;;0.63;0.63;;;22.50;96.80;;;;;;5109473;28;20604;-58
2022/07/08 11:04:47;;;;;;;0.50;0.50;;;22.50;96.60;;;;;;5100210;28;20200;-58
2022/07/08 11:07:41;;;;;;;1.02;0.50;;;22.50;96.50;;;;;;5103949;28;20629;-58
2022/07/08 11:10:10;;;;;;;0.93;0.70;;;22.50;96.30;;;;;;5059075;28;20280;-58
2022/07/08 11:12:40;;;;;;;0.40;0.40;;;22.50;96.40;;;;;;5100936;28;20197;-58
2022/07/08 11:15:11;;;;;;;0.40;0.40;;;22.50;96.30;;;;;;5099707;28;20192;-59
2022/07/08 11:17:40;;;;;;;0.30;0.30;;;22.60;96.20;;;;;;5105784;28;20223;-59
2022/07/08 11:20:09;;;;;;;0.32;0.32;;;22.70;95.90;;;;;;5107390;28;20659;-58
2022/07/08 11:22:38;;;;;;;0.40;0.40;;;22.70;95.70;;;;;;5109510;28;20541;-58
2022/07/08 11:25:07;;;;;;;0.75;0.70;;;22.80;95.50;;;;;;5108186;28;20260;-58
2022/07/08 11:27:35;;;;;;;0.60;0.60;;;22.80;94.90;;;;;;5098589;28;20611;-58
2022/07/08 11:30:06;;;;;;;1.40;0.70;;;22.90;94.50;;;;;;5110466;28;20675;-58
2022/07/08 11:32:34;;;;;;;0.50;0.50;;;23.00;94.00;;;;;;5112582;28;20245;-58
2022/07/08 11:35:01;;;;;;;0.40;0.40;;;23.00;93.30;;;;;;5106873;28;20223;-58
2022/07/08 11:37:32;;;;;;;0.52;0.52;;;23.00;92.90;;;;;;5110089;28;20605;-58
2022/07/08 11:39:59;;;;;;;0.60;0.60;;;22.90;92.50;;;;;;5104075;28;20270;-58
2022/07/08 11:42:26;;;;;;;0.60;0.60;;;23.00;92.10;;;;;;5106698;28;20660;-58
2022/07/08 11:44:55;;;;;;;0.57;0.55;;;23.00;91.70;;;;;;5103508;28;20309;-59
2022/07/08 11:47:23;;;;;;;0.50;0.50;;;23.10;91.40;;;;;;5106594;28;20245;-59
2022/07/08 11:49:50;;;;;;;0.40;0.40;;;23.30;90.90;;;;;;5106300;28;20307;-58
2022/07/08 11:52:18;;;;;;;0.35;0.35;;;23.30;90.50;;;;;;5099055;28;20196;-59
2022/07/08 11:54:47;;;;;;;1.08;0.40;;;23.50;90.00;;;;;;5094829;28;20578;-59
2022/07/08 11:57:15;;;;;;;0.50;0.50;;;23.60;89.20;;;;;;5105728;28;20223;-59
2022/07/08 11:59:45;;;;;;;0.50;0.50;;;23.70;88.50;;;;;;5105719;28;20292;-59
2022/07/08 12:02:14;;;;;;;1.05;0.45;;;23.80;87.00;;;;;;5107307;28;20250;-58
2022/07/08 12:04:45;;;;;;;0.47;0.47;;;23.90;85.80;;;;;;5105131;28;20934;-58
2022/07/08 12:07:24;;;;;;;0.32;0.32;;;23.90;84.90;;;;;;5103244;28;20196;-59
2022/07/08 12:09:55;;;;;;;0.88;0.50;;;24.00;84.30;;;;;;5103440;28;20266;-59
2022/07/08 12:12:23;;;;;;;0.40;0.40;;;24.00;83.00;;;;;;5099719;28;20200;-59
2022/07/08 12:14:50;;;;;;;0.90;0.90;;;24.10;81.20;;;;;;5103645;28;20197;-59
2022/07/08 12:17:25;;;;;;;1.23;1.13;;;24.10;80.80;;;;;;5106867;28;20200;-59
2022/07/08 12:19:53;;;;;;;2.03;1.92;;;24.00;80.10;;;;;;5102195;28;20393;-58
2022/07/08 12:22:41;;;;;;;1.73;1.63;;;24.00;79.00;;;;;;5110668;28;20188;-59
2022/07/08 12:25:09;;;;;;;1.30;1.20;;;23.90;78.70;;;;;;5102944;28;20203;-58
2022/07/08 12:27:36;;;;;;;1.50;0.82;;;23.90;77.60;;;;;;5106115;28;20192;-58
2022/07/08 12:30:03;;;;;;;0.70;0.70;;;23.90;76.60;;;;;;5106791;28;20675;-59
2022/07/08 12:32:39;;;;;;;0.60;0.60;;;24.00;75.70;;;;;;5105859;28;20192;-57
2022/07/08 12:35:07;;;;;;;0.60;0.60;;;24.00;75.50;;;;;;5097844;28;20286;-59
2022/07/08 12:37:34;;;;;;;0.47;0.47;;;24.10;75.20;;;;;;5104601;28;20204;-59
2022/07/08 12:40:14;;;;;;;0.50;0.50;;;24.20;75.60;;;;;;5105751;28;20275;-59
2022/07/08 12:42:41;;;;;;;0.50;0.50;;;24.30;75.70;;;;;;5101957;28;20674;-59
2022/07/08 12:45:15;;;;;;;0.52;0.52;;;24.40;75.30;;;;;;5111479;28;20316;-59
2022/07/08 12:47:43;;;;;;;0.40;0.40;;;24.50;75.10;;;;;;5105800;28;20580;-59
2022/07/08 12:50:10;;;;;;;0.30;0.30;;;24.60;75.90;;;;;;5102325;28;20216;-58
2022/07/08 12:52:37;;;;;;;0.50;0.50;;;24.60;74.60;;;;;;5095753;28;20192;-58
2022/07/08 12:55:06;;;;;;;0.40;0.40;;;24.70;74.30;;;;;;5102073;28;20580;-59
2022/07/08 12:57:33;;;;;;;0.60;0.60;;;24.70;74.10;;;;;;5102477;28;20227;-59